Airfield :
LOGIN :

Register | Disclaimer

   EN    FR    IT 

 










Legend :    VFR   Marginal VFR   IFR   Intensive IFR   Very Intensive IFR
Visi :
Ceiling :
>= 8 km
>= 3000ft
5 to 8 km
1000 to 3000 ft
1500m to 5 km
500 to 1000 ft
800 to 1500m
200 to 500 ft
< 800m
< 200 ft
Symbols :   Thunderstorms  Fog  Heavy snow  Heavy precipitations  Wind > 20 kt
SIGMETs :     Misc.  Thunderstorms  Icing  Turbulence  Mountain Waves  Volcanic Ashes






- Airport Elevation : 1036 ft
- IATA code : ERF


EDDE - Erfurt

CURRENT METAR :
  • 170320Z AUTO 19005KT 9999 FEW039 15/10 Q1012

EXPIRED METARs :
  • 170250Z AUTO 20006KT CAVOK 15/10 Q1012
  • 170220Z AUTO 19005KT CAVOK 15/10 Q1012
  • 170150Z AUTO 19004KT 9999 -RA NSC 15/10 Q1012
  • 170120Z AUTO 20006KT CAVOK 15/10 Q1012
  • 170050Z AUTO 20006KT CAVOK 15/10 Q1012
  • 170020Z AUTO 22005KT CAVOK 15/10 Q1012
  • 162350Z AUTO 21007KT 170V240 CAVOK 16/09 Q1012
  • 162320Z AUTO 22010KT CAVOK 15/09 Q1011
  • 162250Z AUTO 22009KT CAVOK 15/09 Q1011
  • 162220Z AUTO 21006KT CAVOK 15/09 Q1011

TAF TAF EDDE
Valid from the 17 at 00:00 until the 18 at 00:00 UTC


162300Z 1700/1724 20007KT CAVOK
PROB30
TEMPO 1714/1718 23015G25KT TSRA SCT030CB



MET'MAP, your aeronautical weather chart ! - Copyright ORBIFLY December 2007 - Disclaimer

ORBIFLY MET'MAP TEAM :

Programming & Development : Alexandra Zaïnal
Original concept : Baudouin d'Aumeries
Technical & hardware support : Manuel Goepfert
Assistance : Marc-Olivier Méhu




SOURCES & CREDITS :

   NOAA